Time;durP1;ratioP1;P1;durP2;ratioP2;P2;SDS_P1;SDS_P2;PMS_P1;PMS_P2;Temp;Humidity;BMP_temperature;BMP_pressure;BME280_temperature;BME280_humidity;BME280_pressure;Samples;Min_cycle;Max_cycle;Signal;HPM_P1;HPM_P2
2022/01/01 00:02:23;;;;;;;37.55;21.42;;;;;;;0.11;70.36;98268.94;5069108;28;20107;-61
2022/01/01 00:04:49;;;;;;;35.58;20.65;;;;;;;0.09;70.60;98264.69;5068669;28;20466;-62
2022/01/01 00:07:16;;;;;;;36.70;20.30;;;;;;;0.14;70.43;98260.84;5066735;28;20178;-62
2022/01/01 00:09:43;;;;;;;37.17;21.15;;;;;;;0.16;70.57;98259.91;5067784;28;20090;-62
2022/01/01 00:12:09;;;;;;;33.95;19.25;;;;;;;0.12;70.30;98254.81;5067234;28;20043;-64
2022/01/01 00:14:35;;;;;;;32.22;19.48;;;;;;;0.17;70.31;98253.69;5068244;28;20024;-65
2022/01/01 00:17:01;;;;;;;35.05;19.20;;;;;;;0.14;70.54;98246.84;5068219;28;20032;-67
2022/01/01 00:19:27;;;;;;;32.15;18.02;;;;;;;0.19;69.96;98249.16;5068133;28;20039;-65
2022/01/01 00:21:52;;;;;;;31.50;17.77;;;;;;;0.17;70.35;98243.16;5068218;28;20024;-62
2022/01/01 00:24:18;;;;;;;33.40;18.48;;;;;;;0.20;70.33;98241.19;5067835;28;20028;-65
2022/01/01 00:26:43;;;;;;;33.83;18.35;;;;;;;0.21;70.27;98249.91;5068306;28;20184;-65
2022/01/01 00:29:09;;;;;;;30.20;17.25;;;;;;;0.27;70.34;98244.28;5068425;28;20350;-70
2022/01/01 00:31:34;;;;;;;31.85;18.40;;;;;;;0.25;69.93;98239.09;5068100;28;20039;-63
2022/01/01 00:34:00;;;;;;;32.03;17.92;;;;;;;0.29;70.29;98239.75;5066821;28;20077;-66
2022/01/01 00:36:29;;;;;;;29.10;17.48;;;;;;;0.31;70.50;98244.91;5068040;28;20064;-68
2022/01/01 00:38:54;;;;;;;28.60;16.73;;;;;;;0.28;69.98;98233.63;5067637;28;20020;-65
2022/01/01 00:41:20;;;;;;;30.42;17.08;;;;;;;0.29;70.44;98234.50;5068307;28;20448;-65
2022/01/01 00:43:46;;;;;;;31.42;17.10;;;;;;;0.30;69.98;98225.66;5068112;28;20040;-69
2022/01/01 00:46:12;;;;;;;29.98;16.75;;;;;;;0.34;70.33;98218.38;5069380;28;20028;-62
2022/01/01 00:48:37;;;;;;;25.92;15.60;;;;;;;0.36;70.11;98224.38;5068338;28;20044;-68
2022/01/01 00:51:03;;;;;;;29.08;15.48;;;;;;;0.38;69.68;98223.38;5068089;28;20068;-66
2022/01/01 00:53:29;;;;;;;26.50;15.88;;;;;;;0.41;70.20;98227.59;5066651;28;20052;-64
2022/01/01 00:55:54;;;;;;;27.48;15.88;;;;;;;0.23;70.03;98188.34;5067874;28;20029;-62
2022/01/01 00:58:20;;;;;;;24.13;14.50;;;;;;;0.41;69.71;98222.34;5068794;28;20075;-65
2022/01/01 01:00:46;;;;;;;26.00;15.05;;;;;;;0.48;69.46;98222.75;5067765;28;20476;-65
2022/01/01 01:03:14;;;;;;;27.05;14.90;;;;;;;0.43;69.70;98216.00;5066380;28;20024;-62
2022/01/01 01:05:41;;;;;;;24.80;14.80;;;;;;;0.47;69.83;98221.06;5067842;28;20024;-69
2022/01/01 01:08:11;;;;;;;29.15;15.02;;;;;;;0.51;70.08;98217.31;5068001;28;20032;-61
2022/01/01 01:10:37;;;;;;;27.08;15.38;;;;;;;0.50;69.99;98218.25;5067466;28;20101;-66
2022/01/01 01:13:03;;;;;;;26.10;15.55;;;;;;;0.50;69.93;98216.47;5067314;28;20021;-62
2022/01/01 01:15:30;;;;;;;28.45;16.38;;;;;;;0.52;69.74;98213.72;5068311;28;20207;-64
2022/01/01 01:18:00;;;;;;;26.10;15.55;;;;;;;0.54;70.38;98209.22;5067984;28;20032;-61
2022/01/01 01:20:27;;;;;;;28.13;15.02;;;;;;;0.52;70.14;98205.84;5067223;28;20040;-65
2022/01/01 01:22:54;;;;;;;28.33;15.02;;;;;;;0.51;70.14;98204.97;5049790;28;20112;-54
2022/01/01 01:25:21;;;;;;;26.73;15.40;;;;;;;0.53;70.38;98199.63;5070595;28;20036;-61
2022/01/01 01:27:49;;;;;;;26.10;15.70;;;;;;;0.51;69.95;98201.50;5071158;28;20370;-61
2022/01/01 01:30:16;;;;;;;25.75;15.07;;;;;;;0.51;70.17;98204.97;5071111;28;20033;-61
2022/01/01 01:32:42;;;;;;;28.33;15.23;;;;;;;0.34;70.15;98171.84;5069550;28;20397;-63
2022/01/01 01:35:08;;;;;;;25.80;14.80;;;;;;;0.48;70.30;98181.47;5069376;28;20029;-62
2022/01/01 01:37:34;;;;;;;24.77;14.52;;;;;;;0.56;69.72;98204.69;5070676;28;20024;-62
2022/01/01 01:40:00;;;;;;;23.35;13.82;;;;;;;0.56;70.54;98199.41;5070817;28;20539;-60
2022/01/01 01:42:28;;;;;;;24.77;13.43;;;;;;;0.60;70.37;98200.03;5069176;28;20041;-66
2022/01/01 01:44:55;;;;;;;22.50;12.30;;;;;;;0.60;70.61;98189.50;5064902;28;20480;-62
2022/01/01 01:47:43;;;;;;;17.73;10.75;;;;;;;0.61;69.82;98185.94;5070073;28;20028;-62
2022/01/01 01:50:10;;;;;;;16.70;10.68;;;;;;;0.63;69.95;98187.53;5071694;28;20098;-62
2022/01/01 01:52:37;;;;;;;20.40;11.00;;;;;;;0.62;70.17;98190.28;5071181;28;20038;-61
2022/01/01 01:55:08;;;;;;;16.00;9.52;;;;;;;0.67;69.98;98191.63;5080267;28;20032;-71
2022/01/01 01:57:41;;;;;;;17.75;10.15;;;;;;;0.64;69.94;98181.31;5080113;28;20043;-72
2022/01/01 02:03:09;;;;;;;13.75;8.93;;;;;;;0.55;70.20;98188.03;5056621;28;20406;-75
2022/01/01 02:05:35;;;;;;;13.63;7.85;;;;;;;0.58;70.04;98192.25;5071659;28;20039;-74
2022/01/01 02:08:01;;;;;;;14.88;9.10;;;;;;;0.57;69.92;98190.56;5071088;28;20040;-63
2022/01/01 02:10:27;;;;;;;17.73;8.90;;;;;;;0.59;70.04;98198.34;5070751;28;20035;-67
2022/01/01 02:12:55;;;;;;;12.25;7.95;;;;;;;0.63;70.00;98195.41;5071074;28;20032;-61
2022/01/01 02:15:40;;;;;;;13.88;7.97;;;;;;;0.69;70.21;98188.91;5071062;28;20528;-69
2022/01/01 02:18:06;;;;;;;13.93;8.20;;;;;;;0.58;69.92;98176.44;5072028;28;20040;-66
2022/01/01 02:20:32;;;;;;;13.05;7.32;;;;;;;0.55;70.46;98185.38;5071967;28;20032;-64
2022/01/01 02:23:00;;;;;;;12.98;8.45;;;;;;;0.51;70.44;98189.19;5072007;28;20033;-65
2022/01/01 02:25:27;;;;;;;14.23;8.27;;;;;;;0.54;70.38;98198.69;5071875;28;20033;-65
2022/01/01 02:27:53;;;;;;;17.17;8.32;;;;;;;0.53;70.76;98199.63;5071963;28;20029;-62
2022/01/01 02:30:19;;;;;;;13.20;8.00;;;;;;;0.52;71.09;98197.94;5072178;28;20054;-63
2022/01/01 02:32:44;;;;;;;15.02;8.35;;;;;;;0.54;71.23;98201.31;5053847;28;20024;-63
2022/01/01 02:35:13;;;;;;;12.43;8.00;;;;;;;0.46;71.29;98175.47;5071633;28;20020;-63
2022/01/01 02:37:40;;;;;;;13.02;7.90;;;;;;;0.60;70.85;98195.63;5070154;28;20020;-63
2022/01/01 02:40:07;;;;;;;14.52;8.00;;;;;;;0.58;71.25;98197.53;5071751;28;20105;-63
2022/01/01 02:42:33;;;;;;;13.15;8.20;;;;;;;0.57;70.69;98180.84;5071391;28;20139;-64
2022/01/01 02:45:00;;;;;;;12.75;7.80;;;;;;;0.56;71.71;98184.44;5072050;28;20064;-64
2022/01/01 02:47:26;;;;;;;13.60;7.78;;;;;;;0.57;71.27;98187.94;5071641;28;20048;-62
2022/01/01 02:49:51;;;;;;;14.88;7.93;;;;;;;0.57;71.24;98182.66;5071427;28;20110;-63
2022/01/01 02:52:17;;;;;;;12.10;7.68;;;;;;;0.60;71.41;98178.97;5071746;28;20044;-63
2022/01/01 02:54:42;;;;;;;14.23;8.20;;;;;;;0.63;71.65;98178.78;5071940;28;20021;-64
2022/01/01 02:57:08;;;;;;;14.52;8.30;;;;;;;0.66;71.31;98176.78;5074656;28;20027;-63
2022/01/01 02:59:33;;;;;;;13.65;8.00;;;;;;;0.67;71.29;98178.47;5081121;28;21338;-63
2022/01/01 03:01:59;;;;;;;17.13;9.20;;;;;;;0.66;71.23;98174.16;5079118;28;20432;-63
2022/01/01 03:04:25;;;;;;;13.07;8.32;;;;;;;0.68;71.08;98180.16;5071316;28;20044;-64
2022/01/01 03:06:55;;;;;;;17.48;8.90;;;;;;;0.64;71.40;98165.50;5070790;28;20029;-63
2022/01/01 03:09:24;;;;;;;15.32;8.40;;;;;;;0.72;71.33;98172.91;5071010;28;20394;-62
2022/01/01 03:11:50;;;;;;;16.48;8.95;;;;;;;0.73;71.01;98174.59;5070967;28;20032;-63
2022/01/01 03:14:17;;;;;;;14.98;8.60;;;;;;;0.72;71.37;98180.81;5070477;28;20032;-63
2022/01/01 03:16:44;;;;;;;14.30;8.32;;;;;;;0.76;71.30;98184.09;5070279;28;20414;-62
2022/01/01 03:19:10;;;;;;;17.27;9.18;;;;;;;0.76;71.02;98178.81;5070616;28;20878;-63
2022/01/01 03:21:36;;;;;;;18.15;8.48;;;;;;;0.79;71.01;98181.25;5070525;28;20116;-64
2022/01/01 03:24:01;;;;;;;15.65;9.25;;;;;;;0.79;70.83;98179.44;5070546;28;20478;-65
2022/01/01 03:26:27;;;;;;;15.02;8.02;;;;;;;0.79;70.82;98181.25;5069869;28;20032;-63
2022/01/01 03:28:52;;;;;;;17.63;9.65;;;;;;;0.78;71.09;98176.91;5069411;28;20047;-62
2022/01/01 03:31:18;;;;;;;14.82;8.68;;;;;;;0.71;70.96;98166.78;5070666;28;20466;-63
2022/01/01 03:33:43;;;;;;;16.60;9.57;;;;;;;0.71;71.08;98165.94;5069997;28;20116;-64
2022/01/01 03:36:09;;;;;;;20.42;9.50;;;;;;;0.71;71.27;98171.22;5069756;28;20025;-64
2022/01/01 03:38:34;;;;;;;14.32;8.60;;;;;;;0.71;70.91;98174.69;5069995;28;20024;-64
2022/01/01 03:41:00;;;;;;;18.25;9.60;;;;;;;0.75;71.04;98177.13;5070413;28;20035;-63
2022/01/01 03:43:25;;;;;;;16.83;9.02;;;;;;;0.75;71.23;98161.31;5068901;28;20036;-63
2022/01/01 03:45:51;;;;;;;15.55;9.23;;;;;;;0.75;71.09;98169.22;5063389;28;20063;-64
2022/01/01 03:48:16;;;;;;;15.90;9.30;;;;;;;0.71;71.15;98156.22;5068113;28;20126;-64
2022/01/01 03:50:42;;;;;;;17.92;9.57;;;;;;;0.61;70.85;98144.63;5070496;28;20482;-63
2022/01/01 03:53:07;;;;;;;18.02;9.82;;;;;;;0.79;70.57;98168.91;5070035;28;20036;-62
2022/01/01 03:55:33;;;;;;;15.77;9.40;;;;;;;0.76;70.78;98178.81;5069571;28;20036;-63
2022/01/01 03:57:58;;;;;;;16.15;9.02;;;;;;;0.75;71.39;98171.88;5069321;28;20112;-63
2022/01/01 04:00:24;;;;;;;20.27;9.65;;;;;;;0.74;71.23;98160.47;5070126;28;20099;-64
2022/01/01 04:02:49;;;;;;;19.55;10.57;;;;;;;0.76;71.06;98160.38;5069569;28;20028;-65
2022/01/01 04:05:15;;;;;;;15.60;9.32;;;;;;;0.79;70.83;98176.81;5069457;28;20350;-64
2022/01/01 04:07:40;;;;;;;15.60;9.15;;;;;;;0.76;71.14;98171.75;5069591;28;20040;-64
2022/01/01 04:10:06;;;;;;;16.63;8.93;;;;;;;0.76;71.01;98181.44;5069480;28;20079;-64
2022/01/01 04:12:32;;;;;;;16.85;9.68;;;;;;;0.14;70.87;98081.88;5069621;28;20051;-64
2022/01/01 04:15:00;;;;;;;16.90;9.30;;;;;;;0.61;70.61;98155.19;5069689;28;20024;-64
2022/01/01 04:17:27;;;;;;;18.80;9.98;;;;;;;0.73;71.26;98177.22;5068513;28;20086;-64
2022/01/01 04:19:52;;;;;;;17.17;9.57;;;;;;;0.71;71.33;98179.13;5070313;28;20390;-63
2022/01/01 04:22:18;;;;;;;16.65;9.05;;;;;;;0.71;71.25;98176.47;5070029;28;20055;-64
2022/01/01 04:24:44;;;;;;;16.98;9.40;;;;;;;0.80;71.43;98190.84;5069909;28;20115;-63
2022/01/01 04:27:09;;;;;;;17.92;9.57;;;;;;;0.81;70.94;98179.34;5070137;28;20192;-63
2022/01/01 04:29:35;;;;;;;18.90;10.18;;;;;;;0.63;70.90;98148.00;5069422;28;20024;-64
2022/01/01 04:32:02;;;;;;;16.63;9.35;;;;;;;0.74;71.29;98163.09;5070002;28;20081;-63
2022/01/01 04:34:27;;;;;;;15.07;8.25;;;;;;;0.82;70.81;98181.03;5069900;28;20048;-64
2022/01/01 04:37:11;;;;;;;16.05;8.98;;;;;;;0.80;70.63;98170.59;5069920;28;20091;-64
2022/01/01 04:39:37;;;;;;;15.63;8.75;;;;;;;0.82;70.83;98173.13;5069919;28;20115;-63
2022/01/01 04:42:03;;;;;;;15.90;8.73;;;;;;;0.78;70.60;98169.03;5069950;28;20166;-64
2022/01/01 04:44:28;;;;;;;15.20;8.65;;;;;;;0.85;70.64;98184.31;5069406;28;20394;-63
2022/01/01 04:46:54;;;;;;;14.88;8.57;;;;;;;0.88;70.97;98182.41;5069676;28;20033;-63
2022/01/01 04:49:19;;;;;;;16.67;8.82;;;;;;;0.85;70.51;98173.78;5069719;28;20148;-65
2022/01/01 04:51:45;;;;;;;16.38;8.93;;;;;;;0.85;70.16;98173.78;5069118;28;20392;-62
2022/01/01 04:54:17;;;;;;;15.60;8.90;;;;;;;0.88;69.98;98177.97;5069523;28;20039;-62
2022/01/01 04:56:48;;;;;;;15.88;8.82;;;;;;;0.89;70.39;98177.03;5053965;28;20032;-64
2022/01/01 04:59:15;;;;;;;17.77;8.75;;;;;;;0.71;70.33;98148.34;5070170;28;20103;-64
2022/01/01 05:01:41;;;;;;;15.95;7.88;;;;;;;0.89;70.56;98184.94;5073117;28;20032;-63
2022/01/01 05:04:08;;;;;;;13.88;8.00;;;;;;;0.90;70.31;98176.09;5073396;28;20497;-63
2022/01/01 05:06:33;;;;;;;13.85;8.35;;;;;;;0.91;70.25;98180.41;5073699;28;20090;-63
2022/01/01 05:08:59;;;;;;;16.05;8.15;;;;;;;0.91;70.30;98182.22;5073647;28;20021;-63
2022/01/01 05:11:25;;;;;;;15.55;8.27;;;;;;;0.73;69.93;98144.78;5073259;28;20028;-62
2022/01/01 05:13:51;;;;;;;14.80;8.85;;;;;;;0.91;70.19;98182.22;5071748;28;20504;-62
2022/01/01 05:16:18;;;;;;;14.80;7.88;;;;;;;0.89;69.89;98184.94;5073824;28;20033;-64
2022/01/01 05:18:45;;;;;;;13.95;8.00;;;;;;;0.83;70.07;98180.91;5073615;28;20028;-63
2022/01/01 05:21:10;;;;;;;15.05;8.48;;;;;;;0.89;70.43;98184.94;5072637;28;20117;-64
2022/01/01 05:23:36;;;;;;;14.63;8.30;;;;;;;0.86;70.32;98187.78;5072941;28;20562;-64
2022/01/01 05:26:02;;;;;;;16.27;8.00;;;;;;;0.71;70.07;98164.13;5073633;28;20028;-64
2022/01/01 05:28:28;;;;;;;14.10;8.05;;;;;;;0.90;70.17;98198.97;5073362;28;20056;-64
2022/01/01 05:30:53;;;;;;;13.25;7.90;;;;;;;0.86;70.10;98195.69;5073339;28;20052;-62
2022/01/01 05:33:19;;;;;;;13.00;7.13;;;;;;;0.83;70.05;98193.25;5072562;28;20393;-63
2022/01/01 05:35:44;;;;;;;13.48;7.93;;;;;;;0.90;70.17;98202.44;5073249;28;20032;-62
2022/01/01 05:38:10;;;;;;;14.68;8.13;;;;;;;0.87;70.16;98197.38;5073414;28;20234;-63
2022/01/01 05:40:35;;;;;;;20.15;8.32;;;;;;;0.87;69.72;98202.66;5072555;28;20056;-63
2022/01/01 05:43:01;;;;;;;16.17;8.55;;;;;;;0.91;69.72;98209.38;5072703;28;20656;-63
2022/01/01 05:45:26;;;;;;;14.77;7.90;;;;;;;0.91;70.36;98206.75;5072959;28;20036;-62
2022/01/01 05:47:52;;;;;;;17.05;9.43;;;;;;;0.93;69.97;98220.66;5073189;28;20097;-62
2022/01/01 05:50:19;;;;;;;16.38;8.07;;;;;;;0.94;70.12;98213.63;5072409;28;20055;-63
2022/01/01 05:52:45;;;;;;;19.42;8.75;;;;;;;0.80;69.75;98186.38;5072490;28;20382;-64
2022/01/01 05:55:10;;;;;;;17.77;9.30;;;;;;;0.96;70.06;98217.81;5072361;28;20481;-64
2022/01/01 05:57:36;;;;;;;15.32;8.50;;;;;;;0.96;70.04;98217.81;5071790;28;20089;-64
2022/01/01 06:00:06;;;;;;;17.45;8.52;;;;;;;0.99;69.98;98216.78;5071340;28;20119;-63
2022/01/01 06:02:31;;;;;;;15.20;8.32;;;;;;;1.00;69.91;98219.34;5071935;28;20371;-62
2022/01/01 06:04:57;;;;;;;16.02;8.65;;;;;;;1.01;69.61;98217.53;5072294;28;20086;-63
2022/01/01 06:07:22;;;;;;;14.52;8.43;;;;;;;0.99;70.00;98212.38;5072223;28;20103;-62
2022/01/01 06:09:49;;;;;;;14.07;8.20;;;;;;;1.03;69.87;98222.72;5072104;28;20036;-63
2022/01/01 06:12:15;;;;;;;17.50;8.10;;;;;;;1.04;69.79;98219.94;5071733;28;20111;-63
2022/01/01 06:14:40;;;;;;;18.20;9.70;;;;;;;0.88;69.57;98199.06;5072157;28;20029;-64
2022/01/01 06:17:06;;;;;;;17.73;8.93;;;;;;;1.02;69.90;98216.56;5071970;28;20039;-63
2022/01/01 06:19:31;;;;;;;16.05;7.85;;;;;;;1.04;69.89;98219.13;5071665;28;20029;-63
2022/01/01 06:21:57;;;;;;;15.82;8.65;;;;;;;1.03;69.75;98213.00;5072410;28;20111;-62
2022/01/01 06:24:22;;;;;;;17.15;8.07;;;;;;;1.04;70.21;98214.69;5070958;28;20035;-63
2022/01/01 06:26:47;;;;;;;14.73;8.38;;;;;;;1.03;70.03;98218.25;5071706;28;20032;-63
2022/01/01 06:29:13;;;;;;;15.60;8.63;;;;;;;1.02;70.02;98215.75;5072358;28;20523;-62
2022/01/01 06:31:38;;;;;;;14.90;9.00;;;;;;;1.02;70.04;98216.56;5071368;28;20037;-63
2022/01/01 06:34:04;;;;;;;13.18;8.13;;;;;;;0.97;69.82;98210.78;5070249;28;20020;-63
2022/01/01 06:36:29;;;;;;;18.58;8.80;;;;;;;1.03;70.07;98213.00;5072290;28;20107;-63
2022/01/01 06:38:55;;;;;;;16.48;9.25;;;;;;;1.05;69.63;98220.81;5071828;28;20046;-62
2022/01/01 06:41:24;;;;;;;15.10;7.93;;;;;;;0.99;69.81;98217.66;5071796;28;20025;-63
2022/01/01 06:43:50;;;;;;;15.90;8.23;;;;;;;1.06;69.79;98222.50;5071803;28;20124;-66
2022/01/01 06:46:15;;;;;;;16.77;8.32;;;;;;;1.04;69.37;98212.03;5071682;28;20111;-64
2022/01/01 06:48:41;;;;;;;14.68;8.02;;;;;;;1.09;69.46;98223.16;5071012;28;20041;-63
2022/01/01 06:51:06;;;;;;;15.60;7.90;;;;;;;1.11;69.31;98225.66;5071580;28;20069;-62
2022/01/01 06:53:32;;;;;;;15.32;8.50;;;;;;;1.12;69.75;98222.06;5071745;28;20063;-63
2022/01/01 06:55:59;;;;;;;14.55;8.55;;;;;;;1.11;69.54;98220.38;5071290;28;20025;-63
2022/01/01 06:58:24;;;;;;;17.83;8.43;;;;;;;1.11;69.30;98225.66;5071316;28;20065;-63
2022/01/01 07:00:50;;;;;;;18.52;7.95;;;;;;;1.12;69.49;98217.66;5071473;28;20146;-62
2022/01/01 07:03:22;;;;;;;17.35;8.98;;;;;;;1.21;69.49;98220.63;5071512;28;20451;-64
2022/01/01 07:05:48;;;;;;;14.95;8.75;;;;;;;1.14;69.05;98215.75;5070579;28;20051;-62
2022/01/01 07:08:13;;;;;;;15.85;8.63;;;;;;;1.17;69.43;98227.88;5071115;28;20032;-64
2022/01/01 07:10:41;;;;;;;15.40;8.98;;;;;;;1.00;69.48;98200.03;5050316;28;20439;-63
2022/01/01 07:13:07;;;;;;;14.82;8.25;;;;;;;1.00;69.36;98192.13;5058518;28;20398;-63
2022/01/01 07:15:33;;;;;;;17.58;9.57;;;;;;;1.20;69.36;98219.75;5070814;28;20028;-63
2022/01/01 07:17:58;;;;;;;15.88;8.20;;;;;;;1.25;68.98;98228.22;5070809;28;20020;-63
2022/01/01 07:20:24;;;;;;;14.35;8.38;;;;;;;1.12;69.05;98203.63;5071288;28;20453;-63
2022/01/01 07:22:49;;;;;;;13.05;8.25;;;;;;;1.31;69.35;98236.66;5070733;28;20028;-63
2022/01/01 07:25:15;;;;;;;14.95;8.23;;;;;;;1.31;68.94;98234.84;5070710;28;20039;-64
2022/01/01 07:27:41;;;;;;;14.32;8.38;;;;;;;1.26;68.86;98219.34;5070356;28;20401;-63
2022/01/01 07:30:07;;;;;;;16.65;8.30;;;;;;;1.36;68.79;98234.53;5071161;28;20025;-63
2022/01/01 07:32:38;;;;;;;15.45;9.13;;;;;;;1.43;68.82;98236.66;5070962;28;20033;-63
2022/01/01 07:35:04;;;;;;;15.55;8.38;;;;;;;1.43;68.29;98238.44;5070800;28;20115;-62
2022/01/01 07:37:30;;;;;;;14.15;8.18;;;;;;;1.42;68.42;98234.09;5070346;28;20035;-64
2022/01/01 07:39:55;;;;;;;14.55;7.97;;;;;;;1.28;68.66;98209.56;5071107;28;20029;-63
2022/01/01 07:42:21;;;;;;;15.23;8.45;;;;;;;1.49;68.50;98240.69;5070998;28;20029;-62
2022/01/01 07:44:46;;;;;;;14.55;7.95;;;;;;;1.53;68.66;98241.28;5070779;28;20041;-63
2022/01/01 07:47:12;;;;;;;12.98;7.97;;;;;;;1.52;68.37;98240.47;5070237;28;20050;-63
2022/01/01 07:49:37;;;;;;;14.85;7.97;;;;;;;1.58;68.12;98234.75;5070548;28;20405;-63
2022/01/01 07:52:03;;;;;;;14.27;8.10;;;;;;;1.61;67.97;98236.34;5070651;28;20091;-64
2022/01/01 07:54:28;;;;;;;14.60;8.45;;;;;;;1.66;67.72;98236.00;5070248;28;20036;-63
2022/01/01 07:56:54;;;;;;;14.15;8.02;;;;;;;1.68;67.87;98239.38;5070739;28;20028;-63
2022/01/01 07:59:19;;;;;;;11.65;7.30;;;;;;;1.74;67.73;98248.66;5070554;28;20498;-64
2022/01/01 08:01:45;;;;;;;11.98;7.55;;;;;;;1.76;67.28;98241.50;5070129;28;20380;-62
2022/01/01 08:04:10;;;;;;;12.63;7.43;;;;;;;1.76;67.38;98249.41;5070050;28;20422;-64
2022/01/01 08:06:36;;;;;;;11.30;7.10;;;;;;;1.75;67.27;98234.53;5069419;28;20235;-64
2022/01/01 08:09:02;;;;;;;11.77;7.15;;;;;;;1.81;67.77;98248.13;5069714;28;20043;-65
2022/01/01 08:11:27;;;;;;;11.35;7.10;;;;;;;1.80;66.88;98251.72;5070177;28;20028;-63
2022/01/01 08:13:53;;;;;;;11.90;7.10;;;;;;;1.86;67.10;98253.94;5069967;28;20089;-62
2022/01/01 08:16:19;;;;;;;11.43;7.65;;;;;;;1.87;66.59;98252.16;5070123;28;20482;-64
2022/01/01 08:18:45;;;;;;;12.68;7.47;;;;;;;1.88;66.69;98253.84;5070006;28;20029;-63
2022/01/01 08:21:10;;;;;;;12.82;7.15;;;;;;;1.90;66.37;98265.13;5069674;28;20378;-64
2022/01/01 08:23:36;;;;;;;10.40;6.68;;;;;;;1.85;66.17;98257.53;5068581;28;20037;-66
2022/01/01 08:26:01;;;;;;;13.00;7.30;;;;;;;1.84;66.25;98261.13;5069886;28;20029;-63
2022/01/01 08:28:26;;;;;;;11.07;6.55;;;;;;;1.89;66.24;98258.16;5069211;28;20393;-64
2022/01/01 08:30:52;;;;;;;12.82;7.75;;;;;;;1.83;66.07;98263.88;5069699;28;20025;-64
2022/01/01 08:33:17;;;;;;;10.65;6.82;;;;;;;1.85;66.25;98267.25;5070317;28;20029;-63
2022/01/01 08:35:43;;;;;;;10.45;6.65;;;;;;;1.86;66.24;98268.94;5073019;28;20032;-64
2022/01/01 08:38:09;;;;;;;12.80;7.40;;;;;;;1.89;66.45;98262.59;5073809;28;20398;-63
2022/01/01 08:40:35;;;;;;;13.77;7.45;;;;;;;1.93;65.89;98262.28;5074102;28;20021;-64
2022/01/01 08:43:01;;;;;;;13.50;6.88;;;;;;;1.98;66.11;98261.97;5072330;28;20571;-63
2022/01/01 08:45:27;;;;;;;10.45;7.20;;;;;;;1.99;65.53;98251.28;5073792;28;20043;-62
2022/01/01 08:47:53;;;;;;;12.88;7.68;;;;;;;2.00;65.88;98254.78;5074264;28;20028;-63
2022/01/01 08:50:18;;;;;;;10.02;6.53;;;;;;;2.01;65.56;98257.28;5072531;28;20037;-63
2022/01/01 08:52:45;;;;;;;12.00;7.07;;;;;;;2.01;66.13;98254.66;5072577;28;20439;-65
2022/01/01 08:55:11;;;;;;;11.38;7.47;;;;;;;1.87;65.91;98233.69;5071916;28;20029;-63
2022/01/01 08:57:37;;;;;;;15.32;7.22;;;;;;;2.01;65.40;98252.00;5073436;28;20394;-64
2022/01/01 09:00:08;;;;;;;13.10;7.53;;;;;;;1.99;65.74;98247.81;5086972;28;20051;-63
2022/01/01 09:02:34;;;;;;;14.00;7.97;;;;;;;2.04;65.28;98256.22;5071715;28;20486;-65
2022/01/01 09:05:00;;;;;;;11.43;6.90;;;;;;;2.06;65.60;98256.97;5073982;28;20066;-63
2022/01/01 09:07:28;;;;;;;12.38;7.25;;;;;;;1.86;65.59;98222.25;5074459;28;20445;-63
2022/01/01 09:10:02;;;;;;;13.63;6.72;;;;;;;2.16;65.50;98254.53;5082102;28;20522;-65
2022/01/01 09:12:29;;;;;;;12.25;6.90;;;;;;;1.96;65.32;98227.75;5078994;28;20360;-64
2022/01/01 09:14:56;;;;;;;11.00;7.28;;;;;;;2.14;65.11;98257.25;5073457;28;20066;-64
2022/01/01 09:17:22;;;;;;;11.63;6.90;;;;;;;2.15;65.25;98260.75;5080243;28;20032;-64
2022/01/01 09:19:49;;;;;;;13.68;6.75;;;;;;;1.98;65.36;98230.28;5079826;28;20437;-63
2022/01/01 09:22:15;;;;;;;12.48;6.88;;;;;;;2.13;64.63;98252.94;5081897;28;20054;-64
2022/01/01 09:24:40;;;;;;;10.73;6.95;;;;;;;2.13;64.77;98255.56;5081841;28;20462;-63
2022/01/01 09:27:06;;;;;;;11.07;6.30;;;;;;;2.11;64.48;98248.72;5080933;28;20036;-64
2022/01/01 09:29:32;;;;;;;10.77;6.43;;;;;;;1.92;64.71;98217.50;5081626;28;20025;-64
2022/01/01 09:31:57;;;;;;;12.90;6.60;;;;;;;2.06;64.56;98253.50;5072936;28;20028;-64
2022/01/01 09:34:23;;;;;;;10.55;6.05;;;;;;;2.05;64.58;98242.09;5073030;28;20028;-63
2022/01/01 09:36:50;;;;;;;10.75;6.18;;;;;;;2.06;64.46;98245.59;5073376;28;20032;-63
2022/01/01 09:39:16;;;;;;;9.38;5.80;;;;;;;2.08;64.55;98239.22;5080532;28;20031;-63
2022/01/01 09:41:43;;;;;;;8.90;6.03;;;;;;;2.06;63.53;98243.78;5072481;28;20055;-63
2022/01/01 09:44:16;;;;;;;11.77;6.45;;;;;;;2.07;63.69;98234.91;5072715;28;20129;-63
2022/01/01 09:46:44;;;;;;;9.52;5.50;;;;;;;2.05;63.68;98235.94;5054998;28;20470;-65
2022/01/01 09:49:12;;;;;;;10.15;5.88;;;;;;;2.06;63.77;98242.94;5072452;28;20071;-63
2022/01/01 09:51:38;;;;;;;7.93;5.43;;;;;;;1.94;63.61;98216.44;5072024;28;20029;-65
2022/01/01 09:54:03;;;;;;;11.95;6.20;;;;;;;2.08;63.59;98236.56;5071332;28;20028;-64
2022/01/01 09:56:29;;;;;;;8.65;5.53;;;;;;;2.08;63.27;98233.94;5071002;28;20162;-68
2022/01/01 09:58:54;;;;;;;9.07;5.43;;;;;;;2.09;63.34;98227.69;5072034;28;20036;-69
2022/01/01 10:01:20;;;;;;;10.00;5.20;;;;;;;2.11;62.76;98239.00;5071506;28;20025;-66
2022/01/01 10:03:48;;;;;;;8.85;5.13;;;;;;;2.06;62.53;98241.13;5071476;28;20135;-67
2022/01/01 10:06:16;;;;;;;10.85;5.72;;;;;;;2.01;62.83;98232.69;5071643;28;20024;-64
2022/01/01 10:08:46;;;;;;;11.00;5.50;;;;;;;2.03;63.12;98235.22;5070855;28;20179;-63
2022/01/01 10:11:16;;;;;;;10.88;5.72;;;;;;;1.85;62.85;98198.63;5070393;28;20454;-64
2022/01/01 10:13:41;;;;;;;10.80;5.10;;;;;;;1.86;62.59;98209.06;5071175;28;20120;-64
2022/01/01 10:16:09;;;;;;;11.48;4.70;;;;;;;2.01;63.00;98224.78;5070876;28;20523;-62
2022/01/01 10:18:39;;;;;;;6.22;3.45;;;;;;;1.97;61.54;98221.50;5071444;28;20024;-64
2022/01/01 10:21:10;;;;;;;7.28;3.72;;;;;;;1.91;61.74;98227.22;5070628;28;20539;-65
2022/01/01 10:23:39;;;;;;;9.38;4.65;;;;;;;1.89;61.95;98220.34;5060444;28;20116;-66
2022/01/01 10:29:30;;;;;;;8.07;4.05;;;;;;;1.99;61.62;98226.69;5070470;28;20028;-67
2022/01/01 10:32:00;;;;;;;8.30;4.40;;;;;;;1.90;61.36;98233.47;5067956;28;20064;-65
2022/01/01 10:34:34;;;;;;;7.80;4.30;;;;;;;1.93;61.70;98235.03;5071228;28;20033;-63
2022/01/01 10:37:01;;;;;;;7.95;4.43;;;;;;;1.83;61.24;98225.13;5083502;28;20032;-65
2022/01/01 10:39:27;;;;;;;8.27;4.80;;;;;;;1.82;61.33;98236.63;5082058;28;20032;-64
2022/01/01 10:42:01;;;;;;;10.63;5.15;;;;;;;1.81;60.96;98224.38;5071642;28;20032;-67
2022/01/01 10:44:33;;;;;;;10.25;4.68;;;;;;;1.76;61.11;98223.00;5071908;28;20497;-64
2022/01/01 10:47:04;;;;;;;10.93;5.28;;;;;;;1.63;61.34;98225.66;5071380;28;20032;-68
2022/01/01 10:50:02;;;;;;;10.73;5.90;;;;;;;1.65;61.54;98229.03;5070690;28;20052;-67
2022/01/01 10:52:27;;;;;;;7.93;4.65;;;;;;;1.62;61.97;98208.16;5071542;28;20044;-68
2022/01/01 10:54:54;;;;;;;8.98;4.68;;;;;;;1.67;61.74;98221.88;5071895;28;20031;-66
2022/01/01 10:57:25;;;;;;;7.75;4.32;;;;;;;1.51;61.53;98199.22;5069167;28;20033;-67
2022/01/01 11:00:02;;;;;;;12.50;6.20;;;;;;;1.66;61.44;98217.53;5072106;28;20487;-68
2022/01/01 11:02:32;;;;;;;6.43;4.38;;;;;;;1.68;60.84;98215.63;5070510;28;20109;-67
2022/01/01 11:04:58;;;;;;;5.25;3.13;;;;;;;1.61;60.96;98223.16;5071746;28;20048;-66
2022/01/01 11:07:27;;;;;;;6.70;3.45;;;;;;;1.65;61.23;98218.50;5071503;28;20493;-66
2022/01/01 11:09:55;;;;;;;5.00;3.45;;;;;;;1.65;60.88;98223.75;5071069;28;20039;-68
2022/01/01 11:12:22;;;;;;;6.00;3.72;;;;;;;1.60;60.70;98221.47;5071429;28;20390;-66
2022/01/01 11:14:48;;;;;;;6.95;3.33;;;;;;;1.57;60.64;98224.31;5070006;28;20442;-67
2022/01/01 11:17:15;;;;;;;7.05;3.55;;;;;;;1.54;60.95;98221.88;5070952;28;20033;-67
2022/01/01 11:19:42;;;;;;;6.70;4.07;;;;;;;1.50;60.86;98215.97;5071035;28;20441;-68
2022/01/01 11:22:08;;;;;;;7.90;3.92;;;;;;;1.53;60.96;98209.63;5071281;28;20036;-65
2022/01/01 11:24:38;;;;;;;7.03;3.70;;;;;;;1.55;61.07;98215.66;5070349;28;20036;-66
2022/01/01 11:27:05;;;;;;;7.70;4.15;;;;;;;1.54;60.19;98221.88;5069268;28;20028;-66
2022/01/01 11:29:33;;;;;;;8.13;4.47;;;;;;;1.46;60.41;98201.31;5070920;28;20429;-66
2022/01/01 11:32:00;;;;;;;10.57;4.75;;;;;;;1.51;60.19;98212.41;5071416;28;20033;-66
2022/01/01 11:34:30;;;;;;;9.82;5.05;;;;;;;1.52;60.97;98211.44;5071927;28;20032;-70
2022/01/01 11:36:56;;;;;;;13.00;5.35;;;;;;;1.57;61.13;98226.97;5071557;28;20100;-69
2022/01/01 11:39:24;;;;;;;11.48;4.80;;;;;;;1.62;61.39;98223.97;5071993;28;20481;-71